South Fort Myers, Florida
Current Conditions -  °F | °C
As of 6:53 AM on Thursday 18 Dec 2014 (Local Time) from KFMY Reporting Station
Clear Clear  
Wind Chill: 51°   Ceiling: Unl
Heat Index: 51°   Visibility: 10mi
Dew Point: 48°   Wind: 3mph
Humidity: 89%   Direction: 40°NE
Pressure: 30.14"   Gusts: NA
Location:  26.6372°N, 81.8725°W
Report Text: KFMY 181153Z 04003KT 10SM CLR 11/09 A3014 RMK AO2 SLP207 T01060089 10161 20106 50003
Loading
Personal Weather Stations






























Interactive Weather Map New forecast layout! Learn more

10-Day Weather Forecast

Advertisements
Track Severe Weather on mobile